This is the latest recevied weather packets stored in our database for station/object WK7G. If no packets are shown the sender has not sent any weather packets the latest 1 day(s).
| Time | Temp. | Humidity | Pressure | Rain* | Wind** | Luminosity | Snow |
|---|---|---|---|---|---|---|---|
| 1777995271 | 8.33° C | 60% | 1004.8 hPa | 0 mm | 0.89 m/s, 93° | 528 W/m² | - |
| 1777994968 | 8.89° C | 58% | 1004.8 hPa | 0 mm | 1.79 m/s, 74° | 499 W/m² | - |
| 1777994666 | 8.33° C | 57% | 1005 hPa | 0 mm | 1.34 m/s, 110° | 500 W/m² | - |
| 1777994365 | 8.33° C | 57% | 1004.8 hPa | 0 mm | 1.79 m/s, 20° | 454 W/m² | - |
| 1777994062 | 8.89° C | 57% | 1005 hPa | 0 mm | 0.45 m/s, 75° | 447 W/m² | - |
| 1777993759 | 8.33° C | 57% | 1005.1 hPa | 0 mm | 0 m/s | 428 W/m² | - |
| 1777993456 | 7.78° C | 59% | 1005 hPa | 0 mm | 2.24 m/s, 0° | 405 W/m² | - |
| 1777993156 | 8.33° C | 57% | 1004.9 hPa | 0 mm | 0.89 m/s, 66° | 376 W/m² | - |
| 1777992854 | 8.33° C | 56% | 1005 hPa | 0 mm | 0 m/s | 367 W/m² | - |
| 1777992552 | 7.78° C | 58% | 1005 hPa | 0 mm | 0.45 m/s, 341° | 354 W/m² | - |
| 1777992250 | 7.78° C | 57% | 1005.1 hPa | 0 mm | 0.45 m/s, 120° | 336 W/m² | - |
| 1777991947 | 6.67° C | 60% | 1005 hPa | 0 mm | 0.45 m/s, 116° | 321 W/m² | - |
| 1777991644 | 6.67° C | 59% | 1005.1 hPa | 0 mm | 1.34 m/s, 122° | 294 W/m² | - |
| 1777991341 | 6.67° C | 60% | 1005.2 hPa | 0 mm | 1.34 m/s, 92° | 242 W/m² | - |
| 1777991039 | 6.67° C | 61% | 1005.2 hPa | 0 mm | 0.45 m/s, 107° | 270 W/m² | - |
| 1777990735 | 6.11° C | 61% | 1005.4 hPa | 0 mm | 1.34 m/s, 99° | 292 W/m² | - |
| 1777990433 | 6.11° C | 61% | 1005.5 hPa | 0 mm | 0.45 m/s, 104° | 258 W/m² | - |
| 1777990129 | 6.11° C | 61% | 1005.2 hPa | 0 mm | 1.34 m/s, 82° | 232 W/m² | - |
| 1777989826 | 5.56° C | 61% | 1005.4 hPa | 0 mm | 1.79 m/s, 61° | 209 W/m² | - |
| 1777989523 | 5.56° C | 63% | 1005.4 hPa | 0 mm | 2.24 m/s, 8° | 197 W/m² | - |
| 1777989219 | 5.56° C | 62% | 1005.4 hPa | 0 mm | 2.24 m/s, 86° | 177 W/m² | - |
| 1777988915 | 5° C | 63% | 1005.6 hPa | 0 mm | 2.68 m/s, 19° | 147 W/m² | - |
| 1777988612 | 5.56° C | 62% | 1005.2 hPa | 0 mm | 1.79 m/s, 2° | 116 W/m² | - |
| 1777988309 | 5.56° C | 63% | 1005.2 hPa | 0 mm | 0.89 m/s, 90° | 127 W/m² | - |
| 1777988006 | 5.56° C | 65% | 1005.1 hPa | 0 mm | 1.34 m/s, 92° | 117 W/m² | - |
* Rain latest hour (hover to see other rain measurements)
** Current wind speed in m/s (hover to see current wind gust speed)